createdAt,value
2022-11-20T00:01:33.830Z,85.87
2022-11-20T00:04:02.121Z,85.56
2022-11-20T00:06:30.200Z,85.09
2022-11-20T00:09:01.396Z,84.62
2022-11-20T00:11:31.132Z,84.52
2022-11-20T00:14:01.419Z,84.46
2022-11-20T00:16:32.568Z,84.48
2022-11-20T00:19:00.223Z,85.47
2022-11-20T00:21:29.862Z,85.61
2022-11-20T00:23:58.540Z,85.60
2022-11-20T00:26:28.246Z,85.36
2022-11-20T00:28:59.383Z,86.08
2022-11-20T00:31:27.626Z,86.31
2022-11-20T00:33:55.185Z,86.82
2022-11-20T00:36:26.356Z,87.40
2022-11-20T00:38:56.801Z,87.41
2022-11-20T00:41:25.603Z,86.76
2022-11-20T00:43:54.905Z,86.40
2022-11-20T00:46:26.636Z,87.13
2022-11-20T00:48:54.325Z,86.97
2022-11-20T00:51:26.353Z,87.05
2022-11-20T00:53:58.052Z,87.20
2022-11-20T00:56:25.352Z,86.92
2022-11-20T00:58:52.848Z,87.44
2022-11-20T01:01:26.388Z,87.70
2022-11-20T01:03:56.928Z,87.95
2022-11-20T01:06:30.532Z,88.43
2022-11-20T01:09:02.558Z,88.41
2022-11-20T01:11:33.634Z,87.72
2022-11-20T01:14:03.821Z,87.70
2022-11-20T01:16:36.663Z,87.47
2022-11-20T01:19:08.549Z,87.16
2022-11-20T01:21:39.710Z,86.81
2022-11-20T01:24:12.299Z,86.65
2022-11-20T01:26:42.210Z,86.67
2022-11-20T01:29:29.926Z,86.79
2022-11-20T01:31:57.161Z,86.76
2022-11-20T01:34:24.823Z,86.76
2022-11-20T01:36:53.951Z,86.96
2022-11-20T01:39:27.423Z,86.89
2022-11-20T01:42:15.265Z,86.98
2022-11-20T01:44:58.940Z,86.74
2022-11-20T01:47:40.729Z,86.50
2022-11-20T01:50:29.970Z,86.24
2022-11-20T01:53:09.593Z,86.21
2022-11-20T01:55:44.926Z,86.36
2022-11-20T01:58:13.950Z,86.08
2022-11-20T02:00:42.173Z,86.18
2022-11-20T02:03:16.686Z,86.24
2022-11-20T02:06:00.416Z,86.13
2022-11-20T02:08:29.997Z,87.43
2022-11-20T02:10:57.739Z,86.98
2022-11-20T02:13:57.522Z,87.21
2022-11-20T02:16:40.350Z,87.80
2022-11-20T02:19:24.578Z,87.61
2022-11-20T02:22:38.324Z,87.77
2022-11-20T02:25:09.036Z,88.13
2022-11-20T02:27:37.381Z,87.81
2022-11-20T02:30:09.014Z,87.64
2022-11-20T02:32:39.260Z,87.47
2022-11-20T02:35:21.456Z,87.19
2022-11-20T02:37:53.937Z,86.94
2022-11-20T02:40:21.240Z,86.32
2022-11-20T02:42:49.124Z,86.53
2022-11-20T02:45:16.284Z,86.17
2022-11-20T02:47:43.766Z,86.33
2022-11-20T02:50:11.505Z,86.49
2022-11-20T02:52:39.042Z,87.40
2022-11-20T02:55:07.118Z,87.27
2022-11-20T02:57:34.774Z,87.41
2022-11-20T03:00:02.396Z,87.57
2022-11-20T03:02:34.010Z,87.62
2022-11-20T03:05:01.268Z,87.53
2022-11-20T03:07:28.886Z,88.04
2022-11-20T03:09:56.213Z,88.30
2022-11-20T03:12:23.664Z,88.04
2022-11-20T03:14:53.299Z,87.90
2022-11-20T03:17:21.104Z,87.61
2022-11-20T03:19:48.322Z,87.48
2022-11-20T03:22:16.055Z,87.46
2022-11-20T03:24:43.304Z,87.45
2022-11-20T03:27:10.992Z,87.54
2022-11-20T03:29:38.142Z,87.71
2022-11-20T03:32:06.357Z,87.59
2022-11-20T03:34:33.569Z,87.34
2022-11-20T03:37:01.072Z,87.32
2022-11-20T03:39:28.308Z,87.44
2022-11-20T03:41:55.836Z,87.26
2022-11-20T03:44:23.403Z,87.14
2022-11-20T03:46:50.837Z,87.34
2022-11-20T03:49:18.066Z,87.09
2022-11-20T03:51:45.520Z,86.71
2022-11-20T03:54:12.681Z,86.56
2022-11-20T03:56:40.618Z,86.48
2022-11-20T03:59:08.041Z,86.56
2022-11-20T04:01:38.643Z,86.03
2022-11-20T04:04:06.954Z,85.97
2022-11-20T04:06:39.140Z,85.88
2022-11-20T04:09:07.320Z,85.27
2022-11-20T04:11:40.368Z,85.17
2022-11-20T04:14:14.426Z,85.24
2022-11-20T04:16:42.417Z,86.12
2022-11-20T04:19:16.035Z,86.22
2022-11-20T04:21:45.086Z,86.23
2022-11-20T04:24:12.603Z,86.25
2022-11-20T04:26:41.395Z,85.87
2022-11-20T04:29:12.873Z,85.64
2022-11-20T04:31:40.481Z,85.76
2022-11-20T04:34:08.830Z,85.35
2022-11-20T04:36:36.386Z,85.41
2022-11-20T04:39:07.271Z,85.03
2022-11-20T04:41:37.682Z,85.16
2022-11-20T04:44:07.289Z,84.61
2022-11-20T04:46:39.418Z,84.46
2022-11-20T04:49:07.665Z,84.13
2022-11-20T04:51:35.822Z,84.15
2022-11-20T04:54:03.318Z,83.90
2022-11-20T04:56:30.982Z,83.58
2022-11-20T04:59:02.802Z,83.31
2022-11-20T05:01:31.156Z,83.06
2022-11-20T05:03:58.418Z,82.80
2022-11-20T05:06:26.734Z,82.76
2022-11-20T05:08:53.884Z,82.69
2022-11-20T05:11:22.696Z,82.26
2022-11-20T05:13:52.347Z,82.03
2022-11-20T05:16:25.346Z,82.03
2022-11-20T05:18:55.877Z,81.91
2022-11-20T05:21:24.047Z,81.48
2022-11-20T05:23:51.279Z,81.27
2022-11-20T05:26:23.646Z,81.66
2022-11-20T05:28:52.817Z,83.49
2022-11-20T05:31:27.715Z,84.35
2022-11-20T05:33:58.229Z,85.80
2022-11-20T05:36:26.150Z,85.82
2022-11-20T05:38:58.111Z,87.84
2022-11-20T05:41:29.325Z,86.95
2022-11-20T05:43:58.952Z,87.25
2022-11-20T05:46:29.022Z,86.66
2022-11-20T05:48:58.814Z,86.18
2022-11-20T05:51:27.197Z,86.11
2022-11-20T05:53:54.617Z,86.33
2022-11-20T05:56:23.477Z,85.90
2022-11-20T05:58:51.015Z,86.32
2022-11-20T06:01:25.857Z,86.34
2022-11-20T06:03:55.281Z,86.62
2022-11-20T06:06:23.894Z,87.37
2022-11-20T06:08:51.287Z,87.59
2022-11-20T06:11:19.690Z,88.23
2022-11-20T06:13:47.932Z,87.45
2022-11-20T06:16:19.919Z,87.26
2022-11-20T06:18:48.074Z,86.61
2022-11-20T06:21:22.405Z,86.56
2022-11-20T06:23:51.547Z,86.50
2022-11-20T06:26:25.979Z,86.92
2022-11-20T06:28:54.172Z,86.42
2022-11-20T06:31:25.761Z,86.58
2022-11-20T06:33:53.999Z,86.52
2022-11-20T06:36:23.986Z,86.70
2022-11-20T06:38:51.852Z,86.44
2022-11-20T06:41:23.796Z,86.57
2022-11-20T06:43:51.434Z,86.61
2022-11-20T06:46:21.546Z,86.10
2022-11-20T06:48:50.238Z,86.40
2022-11-20T06:51:18.059Z,85.68
2022-11-20T06:53:45.419Z,85.49
2022-11-20T06:56:12.896Z,85.09
2022-11-20T06:58:40.267Z,84.90
2022-11-20T07:01:12.361Z,84.73
2022-11-20T07:03:41.233Z,84.35
2022-11-20T07:06:10.014Z,84.61
2022-11-20T07:08:37.702Z,84.25
2022-11-20T07:11:08.482Z,83.47
2022-11-20T07:13:36.021Z,83.25
2022-11-20T07:16:07.372Z,83.03
2022-11-20T07:18:34.833Z,82.38
2022-11-20T07:21:11.676Z,82.57
2022-11-20T07:23:39.376Z,82.34
2022-11-20T07:26:10.084Z,82.17
2022-11-20T07:28:38.558Z,81.65
2022-11-20T07:31:08.473Z,81.34
2022-11-20T07:33:35.708Z,81.13
2022-11-20T07:36:03.838Z,80.86
2022-11-20T07:38:31.282Z,81.16
2022-11-20T07:40:59.309Z,81.60
2022-11-20T07:43:26.829Z,81.20
2022-11-20T07:45:57.930Z,80.55
2022-11-20T07:48:26.497Z,80.20
2022-11-20T07:50:58.131Z,79.63
2022-11-20T07:53:25.962Z,78.88
2022-11-20T07:55:53.631Z,77.89
2022-11-20T07:58:22.617Z,77.08
2022-11-20T08:00:50.449Z,75.35
2022-11-20T08:03:21.833Z,74.81
2022-11-20T08:05:52.664Z,75.06
2022-11-20T08:08:19.918Z,74.28
2022-11-20T08:10:47.353Z,72.83
2022-11-20T08:13:33.150Z,71.12
2022-11-20T08:16:00.613Z,69.58
2022-11-20T08:18:32.458Z,68.12
2022-11-20T08:21:05.044Z,68.07
2022-11-20T08:23:32.578Z,66.35
2022-11-20T08:26:00.100Z,67.58
2022-11-20T08:28:27.302Z,67.60
2022-11-20T08:31:03.196Z,68.66
2022-11-20T08:33:31.167Z,69.64
2022-11-20T08:36:04.442Z,69.33
2022-11-20T08:38:33.150Z,69.71
2022-11-20T08:41:22.513Z,69.86
2022-11-20T08:43:55.497Z,70.53
2022-11-20T08:46:25.962Z,70.98
2022-11-20T08:48:53.885Z,71.03
2022-11-20T08:51:21.884Z,71.70
2022-11-20T08:53:52.031Z,72.39
2022-11-20T08:56:19.737Z,72.07
2022-11-20T08:59:18.003Z,72.37
2022-11-20T09:01:34.573Z,71.67
2022-11-20T09:04:01.775Z,71.20
2022-11-20T09:06:29.396Z,70.18
2022-11-20T09:09:00.767Z,68.77
2022-11-20T09:11:31.159Z,68.73
2022-11-20T09:13:58.544Z,67.93
2022-11-20T09:16:26.129Z,67.14
2022-11-20T09:19:07.209Z,67.42
2022-11-20T09:21:41.005Z,68.01
2022-11-20T09:24:08.469Z,66.57
2022-11-20T09:26:36.850Z,66.79
2022-11-20T09:29:04.111Z,65.94
2022-11-20T09:31:31.607Z,66.23
2022-11-20T09:33:58.865Z,65.08
2022-11-20T09:36:26.432Z,65.45
2022-11-20T09:38:53.803Z,65.80
2022-11-20T09:41:42.369Z,65.55
2022-11-20T09:44:37.009Z,65.67
2022-11-20T09:47:34.979Z,65.74
2022-11-20T09:51:16.065Z,64.74
2022-11-20T09:54:19.580Z,64.63
2022-11-20T09:57:00.538Z,63.87
2022-11-20T09:59:43.637Z,64.22
2022-11-20T10:02:25.612Z,64.49
2022-11-20T10:05:19.265Z,64.47
2022-11-20T10:08:22.728Z,64.08
2022-11-20T10:11:24.858Z,63.99
2022-11-20T10:14:30.311Z,64.87
2022-11-20T10:17:11.583Z,65.29
2022-11-20T10:20:21.066Z,65.49
2022-11-20T10:23:25.773Z,64.55
2022-11-20T10:26:13.906Z,62.04
2022-11-20T10:29:00.592Z,59.66
2022-11-20T10:31:34.530Z,57.15
2022-11-20T10:34:22.770Z,55.84
2022-11-20T10:37:06.926Z,55.04
2022-11-20T10:40:01.914Z,54.72
2022-11-20T10:42:58.531Z,52.33
2022-11-20T10:45:26.149Z,51.74
2022-11-20T10:48:13.310Z,49.98
2022-11-20T10:50:56.069Z,49.22
2022-11-20T10:53:56.926Z,50.33
2022-11-20T10:56:52.223Z,51.29
2022-11-20T10:59:32.363Z,51.54
2022-11-20T11:04:48.639Z,51.73
2022-11-20T11:07:31.726Z,50.02
2022-11-20T11:09:59.125Z,47.01
2022-11-20T11:12:30.239Z,41.43
2022-11-20T11:14:58.819Z,35.84
2022-11-20T11:17:30.651Z,31.28
2022-11-20T11:20:21.755Z,29.77
2022-11-20T11:22:59.304Z,30.53
2022-11-20T11:25:34.695Z,28.06
2022-11-20T11:28:06.253Z,28.56
2022-11-20T11:30:45.707Z,29.65
2022-11-20T11:33:31.828Z,30.55
2022-11-20T11:36:17.022Z,31.20
2022-11-20T11:38:45.395Z,33.85
2022-11-20T11:41:29.058Z,34.75
2022-11-20T11:44:37.064Z,36.81
2022-11-20T11:47:10.915Z,39.22
2022-11-20T11:49:38.601Z,39.12
2022-11-20T11:52:23.661Z,39.65
2022-11-20T11:55:07.087Z,39.11
2022-11-20T11:58:01.860Z,39.52
2022-11-20T12:00:29.813Z,40.12
2022-11-20T12:03:22.715Z,40.58
2022-11-20T12:06:02.785Z,42.31
2022-11-20T12:08:45.155Z,43.31
2022-11-20T12:11:24.258Z,43.04
2022-11-20T12:13:59.530Z,43.08
2022-11-20T12:16:27.096Z,43.49
2022-11-20T12:18:54.835Z,43.53
2022-11-20T12:21:25.545Z,44.58
2022-11-20T12:24:22.698Z,44.79
2022-11-20T12:27:54.303Z,43.48
2022-11-20T12:30:24.095Z,39.01
2022-11-20T12:33:27.067Z,36.90
2022-11-20T12:36:27.212Z,33.92
2022-11-20T12:39:12.916Z,30.23
2022-11-20T12:42:21.493Z,28.68
2022-11-20T12:45:45.210Z,26.27
2022-11-20T12:48:31.035Z,25.84
2022-11-20T12:51:33.031Z,25.74
2022-11-20T12:54:35.545Z,25.41
2022-11-20T12:57:22.916Z,25.12
2022-11-20T13:00:18.166Z,24.64
2022-11-20T13:03:46.768Z,25.58
2022-11-20T13:06:19.984Z,25.81
2022-11-20T13:08:57.809Z,25.58
2022-11-20T13:11:42.844Z,25.25
2022-11-20T13:14:28.011Z,25.19
2022-11-20T13:17:29.755Z,26.38
2022-11-20T13:20:01.822Z,27.18
2022-11-20T13:22:52.834Z,26.84
2022-11-20T13:25:39.140Z,27.25
2022-11-20T13:28:31.216Z,27.88
2022-11-20T13:31:00.133Z,29.05
2022-11-20T13:33:38.550Z,30.75
2022-11-20T13:36:24.173Z,33.21
2022-11-20T13:38:57.420Z,35.29
2022-11-20T13:41:36.524Z,36.25
2022-11-20T13:44:11.365Z,38.65
2022-11-20T13:46:45.648Z,41.63
2022-11-20T13:49:45.852Z,42.78
2022-11-20T13:52:51.959Z,45.76
2022-11-20T13:55:55.548Z,46.04
2022-11-20T13:58:45.093Z,48.42
2022-11-20T14:01:24.098Z,47.92
2022-11-20T14:04:09.361Z,49.62
2022-11-20T14:06:47.687Z,51.56
2022-11-20T14:09:27.743Z,52.31
2022-11-20T14:11:55.095Z,52.34
2022-11-20T14:14:26.994Z,52.48
2022-11-20T14:17:21.590Z,53.61
2022-11-20T14:19:52.288Z,54.41
2022-11-20T14:22:28.906Z,55.02
2022-11-20T14:25:28.236Z,55.52
2022-11-20T14:28:04.120Z,57.85
2022-11-20T14:30:47.661Z,58.66
2022-11-20T14:33:16.358Z,59.33
2022-11-20T14:35:55.486Z,60.76
2022-11-20T14:38:30.344Z,61.39
2022-11-20T14:41:18.965Z,63.41
2022-11-20T14:43:59.822Z,64.37
2022-11-20T14:46:28.791Z,64.27
2022-11-20T14:49:01.337Z,63.11
2022-11-20T14:51:44.016Z,64.23
2022-11-20T14:54:26.520Z,63.34
2022-11-20T14:56:59.853Z,63.87
2022-11-20T14:59:33.305Z,64.48
2022-11-20T15:02:11.724Z,64.70
2022-11-20T15:05:00.340Z,65.16
2022-11-20T15:07:38.572Z,65.86
2022-11-20T15:10:32.665Z,65.57
2022-11-20T15:13:13.040Z,66.22
2022-11-20T15:15:53.528Z,67.28
2022-11-20T15:18:33.647Z,68.32
2022-11-20T15:21:07.299Z,68.66
2022-11-20T15:23:35.635Z,70.23
2022-11-20T15:26:02.913Z,71.07
2022-11-20T15:28:51.312Z,72.57
2022-11-20T15:31:24.480Z,73.09
2022-11-20T15:33:52.346Z,73.17
2022-11-20T15:36:19.615Z,72.69
2022-11-20T15:38:47.594Z,73.07
2022-11-20T15:41:17.258Z,73.35
2022-11-20T15:43:44.970Z,73.28
2022-11-20T15:46:22.668Z,74.32
2022-11-20T15:48:56.308Z,74.23
2022-11-20T15:51:38.050Z,74.26
2022-11-20T15:54:22.490Z,75.97
2022-11-20T15:56:53.483Z,76.34
2022-11-20T15:59:21.577Z,77.15
2022-11-20T16:01:48.871Z,76.85
2022-11-20T16:04:19.370Z,76.59
2022-11-20T16:06:46.719Z,76.58
2022-11-20T16:09:14.312Z,77.06
2022-11-20T16:11:41.606Z,77.35
2022-11-20T16:14:30.426Z,78.17
2022-11-20T16:16:57.617Z,78.88
2022-11-20T16:19:25.085Z,78.50
2022-11-20T16:21:52.441Z,79.36
2022-11-20T16:24:20.557Z,79.68
2022-11-20T16:26:48.035Z,79.77
2022-11-20T16:29:16.033Z,80.15
2022-11-20T16:31:43.254Z,81.39
2022-11-20T16:34:12.509Z,81.86
2022-11-20T16:36:45.889Z,82.68
2022-11-20T16:39:19.036Z,82.57
2022-11-20T16:41:49.373Z,82.32
2022-11-20T16:44:17.076Z,81.97
2022-11-20T16:46:46.246Z,82.21
2022-11-20T16:49:15.333Z,83.23
2022-11-20T16:51:43.252Z,84.04
2022-11-20T16:54:13.950Z,83.67
2022-11-20T16:56:43.884Z,83.50
2022-11-20T16:59:11.696Z,83.21
2022-11-20T17:01:40.561Z,84.93
2022-11-20T17:04:08.329Z,84.63
2022-11-20T17:06:40.452Z,85.37
2022-11-20T17:09:11.183Z,86.94
2022-11-20T17:11:38.798Z,87.00
2022-11-20T17:14:09.907Z,86.74
2022-11-20T17:16:38.396Z,88.13
2022-11-20T17:19:06.467Z,88.38
2022-11-20T17:21:39.419Z,88.32
2022-11-20T17:24:13.255Z,89.19
2022-11-20T17:26:43.294Z,89.99
2022-11-20T17:29:17.499Z,89.85
2022-11-20T17:31:45.539Z,90.32
2022-11-20T17:34:15.808Z,90.55
2022-11-20T17:36:47.159Z,90.64
2022-11-20T17:39:17.080Z,91.11
2022-11-20T17:41:45.129Z,91.36
2022-11-20T17:44:13.549Z,91.73
2022-11-20T17:46:41.253Z,92.37
2022-11-20T17:49:08.893Z,92.92
2022-11-20T17:51:36.246Z,93.06
2022-11-20T17:54:09.511Z,93.00
2022-11-20T17:56:55.624Z,93.56
2022-11-20T17:59:23.420Z,93.67
2022-11-20T18:01:50.795Z,94.07
2022-11-20T18:04:18.608Z,94.47
2022-11-20T18:06:46.335Z,94.64
2022-11-20T18:09:13.958Z,94.57
2022-11-20T18:11:43.060Z,95.17
2022-11-20T18:14:28.950Z,94.84
2022-11-20T18:17:09.548Z,94.85
2022-11-20T18:19:51.612Z,95.22
2022-11-20T18:22:23.513Z,95.22
2022-11-20T18:24:50.983Z,94.93
2022-11-20T18:27:21.930Z,95.67
2022-11-20T18:29:52.101Z,95.85
2022-11-20T18:32:21.978Z,95.98
2022-11-20T18:34:51.482Z,96.05
2022-11-20T18:37:19.691Z,96.37
2022-11-20T18:39:47.390Z,97.02
2022-11-20T18:42:35.570Z,97.08
2022-11-20T18:45:05.148Z,96.84
2022-11-20T18:47:37.630Z,97.48
2022-11-20T18:50:08.668Z,97.50
2022-11-20T18:52:44.641Z,97.97
2022-11-20T18:55:12.968Z,97.81
2022-11-20T18:57:40.351Z,97.78
2022-11-20T19:00:09.916Z,98.23
2022-11-20T19:02:42.222Z,98.23
2022-11-20T19:05:15.227Z,97.95
2022-11-20T19:07:43.383Z,98.00
2022-11-20T19:10:11.276Z,98.29
2022-11-20T19:12:38.944Z,98.09
2022-11-20T19:15:07.221Z,97.49
2022-11-20T19:17:34.748Z,97.91
2022-11-20T19:20:02.323Z,97.70
2022-11-20T19:22:29.767Z,97.65
2022-11-20T19:24:57.341Z,96.81
2022-11-20T19:27:24.567Z,97.21
2022-11-20T19:29:52.259Z,97.08
2022-11-20T19:32:19.806Z,97.17
2022-11-20T19:34:47.445Z,97.19
2022-11-20T19:37:14.896Z,97.44
2022-11-20T19:39:42.483Z,97.07
2022-11-20T19:42:09.763Z,96.83
2022-11-20T19:44:37.389Z,96.79
2022-11-20T19:47:08.909Z,96.61
2022-11-20T19:49:41.877Z,96.40
2022-11-20T19:52:09.493Z,96.23
2022-11-20T19:54:37.184Z,96.01
2022-11-20T19:57:04.400Z,96.10
2022-11-20T19:59:32.071Z,96.22
2022-11-20T20:01:59.537Z,96.25
2022-11-20T20:04:27.611Z,96.21
2022-11-20T20:06:55.099Z,95.94
2022-11-20T20:09:24.015Z,95.75
2022-11-20T20:11:51.411Z,95.66
2022-11-20T20:14:19.318Z,95.64
2022-11-20T20:16:46.750Z,95.62
2022-11-20T20:19:16.555Z,95.95
2022-11-20T20:21:44.490Z,96.49
2022-11-20T20:24:12.610Z,96.91
2022-11-20T20:26:40.202Z,96.84
2022-11-20T20:29:08.227Z,97.23
2022-11-20T20:31:36.208Z,97.43
2022-11-20T20:34:05.529Z,97.51
2022-11-20T20:36:33.330Z,97.42
2022-11-20T20:39:02.833Z,97.29
2022-11-20T20:41:30.657Z,97.19
2022-11-20T20:44:16.731Z,96.49
2022-11-20T20:46:43.977Z,95.53
2022-11-20T20:49:11.559Z,95.56
2022-11-20T20:51:38.798Z,95.57
2022-11-20T20:54:06.550Z,95.26
2022-11-20T20:56:33.958Z,94.87
2022-11-20T20:59:01.709Z,94.79
2022-11-20T21:01:29.724Z,94.46
2022-11-20T21:03:57.811Z,94.58
2022-11-20T21:06:25.796Z,94.25
2022-11-20T21:08:53.735Z,94.02
2022-11-20T21:11:21.661Z,93.81
2022-11-20T21:13:49.886Z,93.33
2022-11-20T21:16:20.622Z,93.08
2022-11-20T21:18:48.839Z,92.50
2022-11-20T21:21:36.395Z,92.28
2022-11-20T21:24:04.468Z,92.33
2022-11-20T21:26:31.821Z,91.97
2022-11-20T21:28:59.530Z,91.70
2022-11-20T21:31:28.798Z,91.43
2022-11-20T21:33:57.426Z,90.90
2022-11-20T21:36:28.841Z,90.68
2022-11-20T21:38:59.519Z,90.43
2022-11-20T21:41:30.284Z,90.45
2022-11-20T21:46:47.826Z,90.82
2022-11-20T21:49:16.968Z,91.78
2022-11-20T21:51:44.234Z,91.75
2022-11-20T21:54:11.864Z,91.89
2022-11-20T21:56:39.368Z,92.15
2022-11-20T21:59:06.856Z,92.60
2022-11-20T22:01:34.889Z,92.56
2022-11-20T22:04:03.246Z,92.83
2022-11-20T22:06:33.662Z,92.46
2022-11-20T22:09:02.833Z,93.04
2022-11-20T22:11:30.500Z,93.18
2022-11-20T22:14:16.966Z,93.12
2022-11-20T22:16:44.180Z,93.23
2022-11-20T22:19:12.139Z,93.54
2022-11-20T22:21:40.693Z,94.13
2022-11-20T22:24:12.610Z,94.41
2022-11-20T22:26:40.825Z,94.09
2022-11-20T22:29:14.844Z,94.79
2022-11-20T22:31:42.503Z,95.00
2022-11-20T22:34:13.107Z,94.76
2022-11-20T22:36:41.271Z,94.88
2022-11-20T22:39:09.201Z,94.87
2022-11-20T22:41:36.403Z,94.50
2022-11-20T22:44:08.801Z,94.44
2022-11-20T22:46:38.491Z,94.50
2022-11-20T22:49:11.025Z,94.18
2022-11-20T22:51:41.362Z,94.27
2022-11-20T22:54:12.348Z,94.49
2022-11-20T22:56:40.658Z,94.61
2022-11-20T22:59:08.249Z,94.90
2022-11-20T23:01:37.324Z,94.87
2022-11-20T23:04:10.234Z,94.59
2022-11-20T23:06:37.628Z,93.89
2022-11-20T23:09:06.657Z,94.01
2022-11-20T23:11:35.339Z,93.85
2022-11-20T23:14:12.775Z,93.35
2022-11-20T23:16:40.459Z,93.93
2022-11-20T23:19:11.760Z,93.84
2022-11-20T23:21:41.539Z,93.76
2022-11-20T23:24:10.161Z,93.59
2022-11-20T23:26:40.668Z,94.04
2022-11-20T23:29:08.849Z,94.16
2022-11-20T23:31:36.657Z,94.16
2022-11-20T23:34:04.863Z,94.57
2022-11-20T23:36:32.454Z,94.91
2022-11-20T23:38:59.948Z,94.47
2022-11-20T23:41:27.280Z,94.32
2022-11-20T23:43:55.151Z,94.38
2022-11-20T23:46:22.699Z,94.02
2022-11-20T23:48:50.135Z,94.36
2022-11-20T23:51:18.107Z,94.11
2022-11-20T23:53:45.822Z,93.83
2022-11-20T23:56:16.187Z,93.78
2022-11-20T23:58:43.966Z,93.79
